createdAt,value
2019-03-31T00:01:46.723Z,69.70
2019-03-31T00:04:16.427Z,69.70
2019-03-31T00:06:46.108Z,70.30
2019-03-31T00:09:17.141Z,70.10
2019-03-31T00:11:46.913Z,70.20
2019-03-31T00:14:16.646Z,71.00
2019-03-31T00:16:46.421Z,71.50
2019-03-31T00:19:16.116Z,71.60
2019-03-31T00:21:45.887Z,72.80
2019-03-31T00:24:15.648Z,73.50
2019-03-31T00:26:45.386Z,74.10
2019-03-31T00:29:15.152Z,76.50
2019-03-31T00:31:44.891Z,76.90
2019-03-31T00:34:14.575Z,77.20
2019-03-31T00:36:44.351Z,77.90
2019-03-31T00:39:14.130Z,78.10
2019-03-31T00:41:43.892Z,78.50
2019-03-31T00:44:13.627Z,78.10
2019-03-31T00:46:43.396Z,79.50
2019-03-31T00:49:13.144Z,81.10
2019-03-31T00:51:42.988Z,81.60
2019-03-31T00:54:12.754Z,83.10
2019-03-31T00:56:43.510Z,83.40
2019-03-31T00:59:13.208Z,84.80
2019-03-31T01:01:47.846Z,84.30
2019-03-31T01:04:19.814Z,84.20
2019-03-31T01:06:52.635Z,84.50
2019-03-31T01:09:26.646Z,85.10
2019-03-31T01:11:56.511Z,84.80
2019-03-31T01:14:26.374Z,85.20
2019-03-31T01:16:56.453Z,85.10
2019-03-31T01:19:26.715Z,86.20
2019-03-31T01:21:56.761Z,87.00
2019-03-31T01:24:26.512Z,87.10
2019-03-31T01:26:56.174Z,87.30
2019-03-31T01:29:26.035Z,88.10
2019-03-31T01:31:58.602Z,88.50
2019-03-31T01:34:28.298Z,88.30
2019-03-31T01:36:58.030Z,88.10
2019-03-31T01:39:28.727Z,88.70
2019-03-31T01:41:58.487Z,88.50
2019-03-31T01:44:28.238Z,88.80
2019-03-31T01:46:58.007Z,89.50
2019-03-31T01:49:27.768Z,89.40
2019-03-31T01:51:57.539Z,90.00
2019-03-31T01:54:27.285Z,90.10
2019-03-31T01:56:56.970Z,90.30
2019-03-31T01:59:26.730Z,90.30
2019-03-31T02:02:04.204Z,90.50
2019-03-31T02:04:28.078Z,90.70
2019-03-31T02:06:57.818Z,90.40
2019-03-31T02:09:27.585Z,90.20
2019-03-31T02:11:57.340Z,90.00
2019-03-31T02:14:27.037Z,90.10
2019-03-31T02:16:56.770Z,90.20
2019-03-31T02:19:26.664Z,90.20
2019-03-31T02:21:56.429Z,90.50
2019-03-31T02:24:26.201Z,90.20
2019-03-31T02:26:55.985Z,90.10
2019-03-31T02:29:25.703Z,90.00
2019-03-31T02:31:55.467Z,89.40
2019-03-31T02:34:25.176Z,89.50
2019-03-31T02:36:54.929Z,88.30
2019-03-31T02:39:24.700Z,87.70
2019-03-31T02:41:54.444Z,87.30
2019-03-31T02:44:24.199Z,87.00
2019-03-31T02:46:53.952Z,86.30
2019-03-31T02:49:23.719Z,86.60
2019-03-31T02:51:53.496Z,86.70
2019-03-31T02:54:23.282Z,86.10
2019-03-31T02:56:54.646Z,86.20
2019-03-31T02:59:24.421Z,85.50
2019-03-31T03:01:55.407Z,85.70
2019-03-31T03:04:28.035Z,85.80
2019-03-31T03:06:58.804Z,85.70
2019-03-31T03:09:31.057Z,85.90
2019-03-31T03:12:03.018Z,85.90
2019-03-31T03:14:34.582Z,84.90
2019-03-31T03:17:05.505Z,84.70
2019-03-31T03:19:35.254Z,83.90
2019-03-31T03:22:05.038Z,83.20
2019-03-31T03:24:34.773Z,82.90
2019-03-31T03:27:04.440Z,83.60
2019-03-31T03:29:34.383Z,83.00
2019-03-31T03:32:04.136Z,83.00
2019-03-31T03:34:34.162Z,82.60
2019-03-31T03:37:03.926Z,82.30
2019-03-31T03:39:33.691Z,81.80
2019-03-31T03:42:03.470Z,81.10
2019-03-31T03:44:33.216Z,80.70
2019-03-31T03:47:03.103Z,81.30
2019-03-31T03:49:32.981Z,81.20
2019-03-31T03:52:02.754Z,81.80
2019-03-31T03:54:32.485Z,82.30
2019-03-31T03:57:02.171Z,82.40
2019-03-31T03:59:31.926Z,82.30
2019-03-31T04:02:01.680Z,82.80
2019-03-31T04:04:31.471Z,83.40
2019-03-31T04:07:01.208Z,83.60
2019-03-31T04:09:30.971Z,84.20
2019-03-31T04:12:00.721Z,84.00
2019-03-31T04:14:30.636Z,83.60
2019-03-31T04:17:00.377Z,83.60
2019-03-31T04:19:30.131Z,83.60
2019-03-31T04:21:59.824Z,83.90
2019-03-31T04:24:31.154Z,84.40
2019-03-31T04:27:01.414Z,84.90
2019-03-31T04:29:31.102Z,84.70
2019-03-31T04:32:00.856Z,84.70
2019-03-31T04:34:31.597Z,85.70
2019-03-31T04:37:02.285Z,85.90
2019-03-31T04:39:32.024Z,86.00
2019-03-31T04:42:01.779Z,86.00
2019-03-31T04:44:31.535Z,85.50
2019-03-31T04:47:01.438Z,84.90
2019-03-31T04:49:31.127Z,84.10
2019-03-31T04:52:00.860Z,83.50
2019-03-31T04:54:30.564Z,83.10
2019-03-31T04:57:00.255Z,83.10
2019-03-31T04:59:30.012Z,82.90
2019-03-31T05:01:59.925Z,82.20
2019-03-31T05:04:29.656Z,81.80
2019-03-31T05:06:59.423Z,81.40
2019-03-31T05:09:29.161Z,81.90
2019-03-31T05:11:58.922Z,82.30
2019-03-31T05:14:28.680Z,82.00
2019-03-31T05:16:58.441Z,82.60
2019-03-31T05:19:28.205Z,83.60
2019-03-31T05:21:58.950Z,83.80
2019-03-31T05:24:28.706Z,84.20
2019-03-31T05:26:58.568Z,84.30
2019-03-31T05:29:28.338Z,85.20
2019-03-31T05:31:58.027Z,85.90
2019-03-31T05:34:27.773Z,86.30
2019-03-31T05:36:57.541Z,86.80
2019-03-31T05:39:27.279Z,86.80
2019-03-31T05:41:56.962Z,86.90
2019-03-31T05:44:26.632Z,87.00
2019-03-31T05:46:56.405Z,87.10
2019-03-31T05:49:26.325Z,87.70
2019-03-31T05:51:56.090Z,87.40
2019-03-31T05:54:25.860Z,88.00
2019-03-31T05:56:55.603Z,89.30
2019-03-31T05:59:25.385Z,89.70
2019-03-31T06:01:55.133Z,89.00
2019-03-31T06:04:33.049Z,88.80
2019-03-31T06:06:56.312Z,88.80
2019-03-31T06:09:26.097Z,88.40
2019-03-31T06:11:55.923Z,88.10
2019-03-31T06:14:25.700Z,88.00
2019-03-31T06:16:55.493Z,88.30
2019-03-31T06:19:25.270Z,88.00
2019-03-31T06:21:55.072Z,87.80
2019-03-31T06:24:24.824Z,87.00
2019-03-31T06:26:54.594Z,87.40
2019-03-31T06:29:24.336Z,87.60
2019-03-31T06:31:54.341Z,87.70
2019-03-31T06:34:24.079Z,87.50
2019-03-31T06:36:53.965Z,87.10
2019-03-31T06:39:23.729Z,86.90
2019-03-31T06:41:53.464Z,86.40
2019-03-31T06:44:23.284Z,85.70
2019-03-31T06:46:52.970Z,85.70
2019-03-31T06:49:22.703Z,85.60
2019-03-31T06:51:52.492Z,85.40
2019-03-31T06:54:22.150Z,85.20
2019-03-31T06:56:51.850Z,85.40
2019-03-31T06:59:21.612Z,85.60
2019-03-31T07:01:51.384Z,85.50
2019-03-31T07:04:21.149Z,85.40
2019-03-31T07:06:50.881Z,85.60
2019-03-31T07:09:20.581Z,85.50
2019-03-31T07:11:50.316Z,85.30
2019-03-31T07:14:20.082Z,85.30
2019-03-31T07:16:49.899Z,85.30
2019-03-31T07:19:19.632Z,85.30
2019-03-31T07:21:49.393Z,85.50
2019-03-31T07:24:19.052Z,85.70
2019-03-31T07:26:48.821Z,85.60
2019-03-31T07:29:18.584Z,85.80
2019-03-31T07:31:48.343Z,85.90
2019-03-31T07:34:18.100Z,85.90
2019-03-31T07:36:47.903Z,86.10
2019-03-31T07:39:17.634Z,85.10
2019-03-31T07:41:47.583Z,85.10
2019-03-31T07:44:17.327Z,85.10
2019-03-31T07:46:47.086Z,84.70
2019-03-31T07:49:16.824Z,85.00
2019-03-31T07:51:46.591Z,84.80
2019-03-31T07:54:16.337Z,85.20
2019-03-31T07:56:46.091Z,85.00
2019-03-31T07:59:16.860Z,85.10
2019-03-31T08:01:46.636Z,85.20
2019-03-31T08:04:16.404Z,84.70
2019-03-31T08:06:46.138Z,84.30
2019-03-31T08:09:15.925Z,84.70
2019-03-31T08:11:45.693Z,84.70
2019-03-31T08:14:15.353Z,85.10
2019-03-31T08:16:45.110Z,84.50
2019-03-31T08:19:14.864Z,83.20
2019-03-31T08:21:44.673Z,82.60
2019-03-31T08:24:14.412Z,82.10
2019-03-31T08:26:44.162Z,81.60
2019-03-31T08:29:13.904Z,80.50
2019-03-31T08:31:43.668Z,80.50
2019-03-31T08:34:13.333Z,80.00
2019-03-31T08:36:43.103Z,79.40
2019-03-31T08:39:12.838Z,78.60
2019-03-31T08:41:42.527Z,78.60
2019-03-31T08:44:12.213Z,78.30
2019-03-31T08:46:41.882Z,77.60
2019-03-31T08:49:11.656Z,76.90
2019-03-31T08:51:41.386Z,75.10
2019-03-31T08:54:11.156Z,75.20
2019-03-31T08:56:41.049Z,75.30
2019-03-31T08:59:10.746Z,74.70
2019-03-31T09:01:40.507Z,73.30
2019-03-31T09:04:10.249Z,73.80
2019-03-31T09:06:40.075Z,73.40
2019-03-31T09:09:09.848Z,71.90
2019-03-31T09:11:39.516Z,71.60
2019-03-31T09:14:09.335Z,71.80
2019-03-31T09:16:39.077Z,70.90
2019-03-31T09:19:08.866Z,71.10
2019-03-31T09:21:38.618Z,69.50
2019-03-31T09:24:08.668Z,67.50
2019-03-31T09:26:38.380Z,69.10
2019-03-31T09:29:08.149Z,68.50
2019-03-31T09:31:37.917Z,68.10
2019-03-31T09:34:07.642Z,65.90
2019-03-31T09:36:37.420Z,66.40
2019-03-31T09:39:07.253Z,65.50
2019-03-31T09:41:36.976Z,66.00
2019-03-31T09:44:06.711Z,64.30
2019-03-31T09:46:36.827Z,62.70
2019-03-31T09:49:06.592Z,63.00
2019-03-31T09:51:36.432Z,63.80
2019-03-31T09:54:06.195Z,63.10
2019-03-31T09:56:35.955Z,61.80
2019-03-31T09:59:05.639Z,59.60
2019-03-31T10:01:35.416Z,60.60
2019-03-31T10:04:05.221Z,59.60
2019-03-31T10:06:35.393Z,58.30
2019-03-31T10:09:06.627Z,58.40
2019-03-31T10:11:36.393Z,58.70
2019-03-31T10:14:06.134Z,58.60
2019-03-31T10:16:36.025Z,56.30
2019-03-31T10:19:05.754Z,55.40
2019-03-31T10:21:35.498Z,56.30
2019-03-31T10:24:05.273Z,58.20
2019-03-31T10:26:34.999Z,57.80
2019-03-31T10:29:04.786Z,57.80
2019-03-31T10:31:34.470Z,58.90
2019-03-31T10:34:04.716Z,56.90
2019-03-31T10:36:44.450Z,58.40
2019-03-31T10:39:07.151Z,59.00
2019-03-31T10:41:36.932Z,58.40
2019-03-31T10:44:06.592Z,57.40
2019-03-31T10:46:36.335Z,58.50
2019-03-31T10:49:06.103Z,58.40
2019-03-31T10:51:35.819Z,58.40
2019-03-31T10:54:05.674Z,59.00
2019-03-31T10:56:35.426Z,58.40
2019-03-31T10:59:05.182Z,59.50
2019-03-31T11:01:34.929Z,59.70
2019-03-31T11:04:04.801Z,59.60
2019-03-31T11:06:34.555Z,58.40
2019-03-31T11:09:06.129Z,59.20
2019-03-31T11:11:37.420Z,60.90
2019-03-31T11:14:07.192Z,61.10
2019-03-31T11:16:37.113Z,60.40
2019-03-31T11:19:07.818Z,61.30
2019-03-31T11:21:40.544Z,61.40
2019-03-31T11:24:10.527Z,60.70
2019-03-31T11:26:40.361Z,60.00
2019-03-31T11:29:10.054Z,59.60
2019-03-31T11:31:39.742Z,62.10
2019-03-31T11:34:09.422Z,61.60
2019-03-31T11:36:39.126Z,61.90
2019-03-31T11:39:08.884Z,61.00
2019-03-31T11:41:38.651Z,61.40
2019-03-31T11:44:09.891Z,61.10
2019-03-31T11:46:39.654Z,61.40
2019-03-31T11:49:09.591Z,60.70
2019-03-31T11:51:39.369Z,61.50
2019-03-31T11:54:09.334Z,62.10
2019-03-31T11:56:39.149Z,62.30
2019-03-31T11:59:08.967Z,62.30
2019-03-31T12:01:38.826Z,62.80
2019-03-31T12:04:09.748Z,63.30
2019-03-31T12:06:39.518Z,63.30
2019-03-31T12:09:09.281Z,62.90
2019-03-31T12:11:39.036Z,63.30
2019-03-31T12:14:08.772Z,64.60
2019-03-31T12:16:38.558Z,65.90
2019-03-31T12:19:08.274Z,66.00
2019-03-31T12:21:38.050Z,66.60
2019-03-31T12:24:07.755Z,64.40
2019-03-31T12:26:37.522Z,64.70
2019-03-31T12:29:07.433Z,64.10
2019-03-31T12:31:37.668Z,63.80
2019-03-31T12:34:07.437Z,64.10
2019-03-31T12:36:37.177Z,63.10
2019-03-31T12:39:08.857Z,62.90
2019-03-31T12:41:38.634Z,61.30
2019-03-31T12:44:08.484Z,59.80
2019-03-31T12:46:39.275Z,59.30
2019-03-31T12:49:08.963Z,59.40
2019-03-31T12:51:38.713Z,58.80
2019-03-31T12:54:08.455Z,59.70
2019-03-31T12:56:38.225Z,62.00
2019-03-31T12:59:08.004Z,62.00
2019-03-31T13:01:37.765Z,62.50
2019-03-31T13:04:07.522Z,62.00
2019-03-31T13:06:37.299Z,62.60
2019-03-31T13:09:08.372Z,62.40
2019-03-31T13:11:38.143Z,61.40
2019-03-31T13:14:07.916Z,61.10
2019-03-31T13:16:38.692Z,59.60
2019-03-31T13:19:08.380Z,61.30
2019-03-31T13:21:38.275Z,60.70
2019-03-31T13:24:08.036Z,61.10
2019-03-31T13:26:37.830Z,60.80
2019-03-31T13:29:07.499Z,59.30
2019-03-31T13:31:37.255Z,61.50
2019-03-31T13:34:07.041Z,62.70
2019-03-31T13:36:37.818Z,61.90
2019-03-31T13:39:07.839Z,62.40
2019-03-31T13:41:37.628Z,60.10
2019-03-31T13:44:07.392Z,60.30
2019-03-31T13:46:37.082Z,59.50
2019-03-31T13:49:19.271Z,61.50
2019-03-31T13:51:49.013Z,62.20
2019-03-31T13:54:18.795Z,62.60
2019-03-31T13:56:50.034Z,62.80
2019-03-31T13:59:21.111Z,61.20
2019-03-31T14:01:51.003Z,61.10
2019-03-31T14:04:20.672Z,61.00
2019-03-31T14:06:50.594Z,61.30
2019-03-31T14:09:20.278Z,61.50
2019-03-31T14:11:50.226Z,61.90
2019-03-31T14:14:20.024Z,62.30
2019-03-31T14:16:49.744Z,61.80
2019-03-31T14:19:19.773Z,61.90
2019-03-31T14:21:49.471Z,59.50
2019-03-31T14:24:20.146Z,60.70
2019-03-31T14:26:49.843Z,60.00
2019-03-31T14:29:19.680Z,59.30
2019-03-31T14:31:51.978Z,62.90
2019-03-31T14:34:20.801Z,63.30
2019-03-31T14:36:50.576Z,60.90
2019-03-31T14:39:20.363Z,60.60
2019-03-31T14:41:50.137Z,61.60
2019-03-31T14:44:19.821Z,60.30
2019-03-31T14:46:49.628Z,59.90
2019-03-31T14:49:19.309Z,59.40
2019-03-31T14:51:48.997Z,58.90
2019-03-31T14:54:18.701Z,59.40
2019-03-31T14:56:48.466Z,58.70
2019-03-31T14:59:18.252Z,58.40
2019-03-31T15:01:47.933Z,59.40
2019-03-31T15:04:17.646Z,59.40
2019-03-31T15:06:47.578Z,59.00
2019-03-31T15:09:17.361Z,60.80
2019-03-31T15:11:47.139Z,60.90
2019-03-31T15:14:16.947Z,61.00
2019-03-31T15:16:48.374Z,61.20
2019-03-31T15:19:18.077Z,61.20
2019-03-31T15:21:47.877Z,60.40
2019-03-31T15:24:17.711Z,59.80
2019-03-31T15:26:47.496Z,61.60
2019-03-31T15:29:17.185Z,62.20
2019-03-31T15:31:46.927Z,61.50
2019-03-31T15:34:16.655Z,60.70
2019-03-31T15:36:46.346Z,59.50
2019-03-31T15:39:16.122Z,61.00
2019-03-31T15:41:45.810Z,61.50
2019-03-31T15:44:15.578Z,60.90
2019-03-31T15:46:45.352Z,60.00
2019-03-31T15:49:15.791Z,60.80
2019-03-31T15:51:45.573Z,61.40
2019-03-31T15:54:16.075Z,61.60
2019-03-31T15:56:45.856Z,61.60
2019-03-31T15:59:17.664Z,62.50
2019-03-31T16:01:47.486Z,62.20
2019-03-31T16:04:18.741Z,62.20
2019-03-31T16:06:48.451Z,60.20
2019-03-31T16:09:23.768Z,60.50
2019-03-31T16:11:54.007Z,61.30
2019-03-31T16:14:22.701Z,61.50
2019-03-31T16:16:52.540Z,62.40
2019-03-31T16:19:22.443Z,62.30
2019-03-31T16:21:52.217Z,61.60
2019-03-31T16:24:23.533Z,61.90
2019-03-31T16:26:53.460Z,62.50
2019-03-31T16:29:23.222Z,62.40
2019-03-31T16:31:52.914Z,63.20
2019-03-31T16:34:23.178Z,63.40
2019-03-31T16:36:52.909Z,63.30
2019-03-31T16:39:36.551Z,63.50
2019-03-31T16:41:53.992Z,64.10
2019-03-31T16:44:23.754Z,65.10
2019-03-31T16:46:53.496Z,65.20
2019-03-31T16:49:23.259Z,65.20
2019-03-31T16:51:52.984Z,65.40
2019-03-31T16:54:22.768Z,65.50
2019-03-31T16:56:52.530Z,64.50
2019-03-31T16:59:22.276Z,63.80
2019-03-31T17:01:52.075Z,63.90
2019-03-31T17:04:21.814Z,65.60
2019-03-31T17:06:51.518Z,65.80
2019-03-31T17:09:21.294Z,66.20
2019-03-31T17:11:51.059Z,65.70
2019-03-31T17:14:20.824Z,65.20
2019-03-31T17:16:50.570Z,66.00
2019-03-31T17:19:20.344Z,66.70
2019-03-31T17:21:50.102Z,67.40
2019-03-31T17:24:19.830Z,67.70
2019-03-31T17:26:49.719Z,66.90
2019-03-31T17:29:19.413Z,66.70
2019-03-31T17:31:49.178Z,67.10
2019-03-31T17:34:19.054Z,67.70
2019-03-31T17:36:48.831Z,67.60
2019-03-31T17:39:18.580Z,67.30
2019-03-31T17:41:48.334Z,66.80
2019-03-31T17:44:18.106Z,66.70
2019-03-31T17:46:47.858Z,67.50
2019-03-31T17:49:17.699Z,67.70
2019-03-31T17:51:47.305Z,67.50
2019-03-31T17:54:17.284Z,67.90
2019-03-31T17:56:47.040Z,68.50
2019-03-31T17:59:16.736Z,68.00
2019-03-31T18:01:46.497Z,68.50
2019-03-31T18:04:16.297Z,68.00
2019-03-31T18:06:45.988Z,68.00
2019-03-31T18:09:15.747Z,68.80
2019-03-31T18:11:45.442Z,69.50
2019-03-31T18:14:15.188Z,69.60
2019-03-31T18:16:45.004Z,69.60
2019-03-31T18:19:14.755Z,69.30
2019-03-31T18:21:44.460Z,69.30
2019-03-31T18:24:14.228Z,69.50
2019-03-31T18:26:43.991Z,69.60
2019-03-31T18:29:13.691Z,70.10
2019-03-31T18:31:43.446Z,70.10
2019-03-31T18:34:13.224Z,70.50
2019-03-31T18:36:42.914Z,70.60
2019-03-31T18:39:12.791Z,71.70
2019-03-31T18:41:42.559Z,73.10
2019-03-31T18:44:12.417Z,73.00
2019-03-31T18:46:42.050Z,72.80
2019-03-31T18:49:11.952Z,73.40
2019-03-31T18:51:41.805Z,73.50
2019-03-31T18:54:18.863Z,73.80
2019-03-31T18:56:56.209Z,73.50
2019-03-31T18:59:27.558Z,74.30
2019-03-31T19:02:15.239Z,73.80
2019-03-31T19:05:03.073Z,75.00
2019-03-31T19:07:52.270Z,75.70
2019-03-31T19:10:49.339Z,75.70
2019-03-31T19:13:17.971Z,76.90
2019-03-31T19:16:04.483Z,76.50
2019-03-31T19:18:42.077Z,76.80
2019-03-31T19:21:13.563Z,77.10
2019-03-31T19:23:50.645Z,77.70
2019-03-31T19:26:47.641Z,77.80
2019-03-31T19:29:19.039Z,78.00
2019-03-31T19:32:02.984Z,78.10
2019-03-31T19:34:40.162Z,77.80
2019-03-31T19:37:27.890Z,77.90
2019-03-31T19:40:02.193Z,78.10
2019-03-31T19:42:39.531Z,78.10
2019-03-31T19:45:27.476Z,77.90
2019-03-31T19:48:13.859Z,78.10
2019-03-31T19:51:00.463Z,78.10
2019-03-31T19:53:31.779Z,77.50
2019-03-31T19:56:18.500Z,78.00
2019-03-31T19:58:52.615Z,78.40
2019-03-31T20:01:24.151Z,78.60
2019-03-31T20:04:13.729Z,79.20
2019-03-31T20:07:01.056Z,79.30
2019-03-31T20:09:48.718Z,79.60
2019-03-31T20:12:22.786Z,80.00
2019-03-31T20:15:03.085Z,80.50
2019-03-31T20:17:35.872Z,80.50
2019-03-31T20:20:24.688Z,80.40
2019-03-31T20:23:02.044Z,80.90
2019-03-31T20:25:33.390Z,81.20
2019-03-31T20:28:07.454Z,81.80
2019-03-31T20:30:41.817Z,82.20
2019-03-31T20:33:17.091Z,82.40
2019-03-31T20:35:54.248Z,82.80
2019-03-31T20:38:25.598Z,83.00
2019-03-31T20:40:56.911Z,83.10
2019-03-31T20:43:28.255Z,83.20
2019-03-31T20:45:57.993Z,83.30
2019-03-31T20:48:27.766Z,83.00
2019-03-31T20:50:57.540Z,82.70
2019-03-31T20:53:27.211Z,82.70
2019-03-31T20:55:57.003Z,82.30
2019-03-31T20:58:26.748Z,82.40
2019-03-31T21:00:56.461Z,82.20
2019-03-31T21:03:26.359Z,82.10
2019-03-31T21:05:56.139Z,80.70
2019-03-31T21:08:25.890Z,79.90
2019-03-31T21:10:55.646Z,79.20
2019-03-31T21:13:25.935Z,78.90
2019-03-31T21:15:55.670Z,78.60
2019-03-31T21:18:25.652Z,78.00
2019-03-31T21:20:55.409Z,78.20
2019-03-31T21:23:25.159Z,78.00
2019-03-31T21:25:55.002Z,78.10
2019-03-31T21:28:24.747Z,78.00
2019-03-31T21:30:54.523Z,77.90
2019-03-31T21:33:24.263Z,77.80
2019-03-31T21:35:54.377Z,78.00
2019-03-31T21:38:24.135Z,78.30
2019-03-31T21:40:53.934Z,78.50
2019-03-31T21:43:23.672Z,78.60
2019-03-31T21:45:53.359Z,78.70
2019-03-31T21:48:23.085Z,78.80
2019-03-31T21:50:52.806Z,78.30
2019-03-31T21:53:22.561Z,79.20
2019-03-31T21:55:52.333Z,79.40
2019-03-31T21:58:22.113Z,79.20
2019-03-31T22:00:54.137Z,79.40
2019-03-31T22:03:25.366Z,79.20
2019-03-31T22:05:56.686Z,79.10
2019-03-31T22:08:26.506Z,79.40
2019-03-31T22:10:56.301Z,79.20
2019-03-31T22:13:26.099Z,79.30
2019-03-31T22:15:57.407Z,79.50
2019-03-31T22:18:27.114Z,79.60
2019-03-31T22:20:56.964Z,79.60
2019-03-31T22:23:26.755Z,79.70
2019-03-31T22:25:56.487Z,79.60
2019-03-31T22:28:26.297Z,79.90
2019-03-31T22:30:56.014Z,79.60
2019-03-31T22:33:26.873Z,79.90
2019-03-31T22:36:14.412Z,79.90
2019-03-31T22:38:44.188Z,80.00
2019-03-31T22:41:13.922Z,80.20
2019-03-31T22:43:43.738Z,80.30
2019-03-31T22:46:13.456Z,80.30
2019-03-31T22:48:43.187Z,80.60
2019-03-31T22:51:12.950Z,80.60
2019-03-31T22:53:42.696Z,80.20
2019-03-31T22:56:12.457Z,80.30
2019-03-31T22:58:42.271Z,80.60
2019-03-31T23:01:12.030Z,80.60
2019-03-31T23:03:41.796Z,80.80
2019-03-31T23:06:11.534Z,81.00
2019-03-31T23:08:41.313Z,81.10
2019-03-31T23:11:10.976Z,81.00
2019-03-31T23:13:40.790Z,81.30
2019-03-31T23:16:10.490Z,81.40
2019-03-31T23:18:40.306Z,80.60
2019-03-31T23:21:10.110Z,80.90
2019-03-31T23:23:39.881Z,81.30
2019-03-31T23:26:09.733Z,81.80
2019-03-31T23:28:41.020Z,81.30
2019-03-31T23:31:10.772Z,81.70
2019-03-31T23:33:40.511Z,81.70
2019-03-31T23:36:10.143Z,81.60
2019-03-31T23:38:39.996Z,81.80
2019-03-31T23:41:09.748Z,81.60
2019-03-31T23:43:39.548Z,81.90
2019-03-31T23:46:09.312Z,82.30
2019-03-31T23:48:38.986Z,83.30
2019-03-31T23:51:09.749Z,82.30
2019-03-31T23:53:39.513Z,82.40
2019-03-31T23:56:09.276Z,82.30
2019-03-31T23:58:39.012Z,82.00
